sensor_id;sensor_type;location;lat;lon;timestamp;P1;durP1;ratioP1;P2;durP2;ratioP2
74213;SDS011;62576;55.694;37.494;2023-03-01T00:00:17;1.15;;;0.50;;
74213;SDS011;62576;55.694;37.494;2023-03-01T00:02:48;4.07;;;1.30;;
74213;SDS011;62576;55.694;37.494;2023-03-01T00:05:18;3.53;;;1.08;;
74213;SDS011;62576;55.694;37.494;2023-03-01T00:07:49;4.00;;;1.08;;
74213;SDS011;62576;55.694;37.494;2023-03-01T00:10:21;1.50;;;0.47;;
74213;SDS011;62576;55.694;37.494;2023-03-01T00:12:52;3.88;;;0.90;;
74213;SDS011;62576;55.694;37.494;2023-03-01T00:15:22;4.43;;;1.00;;
74213;SDS011;62576;55.694;37.494;2023-03-01T00:17:52;2.78;;;0.77;;
74213;SDS011;62576;55.694;37.494;2023-03-01T00:20:22;2.75;;;1.05;;
74213;SDS011;62576;55.694;37.494;2023-03-01T00:22:54;2.45;;;0.55;;
74213;SDS011;62576;55.694;37.494;2023-03-01T00:25:24;2.88;;;0.70;;
74213;SDS011;62576;55.694;37.494;2023-03-01T00:27:54;2.42;;;0.90;;
74213;SDS011;62576;55.694;37.494;2023-03-01T00:30:24;4.20;;;0.70;;
74213;SDS011;62576;55.694;37.494;2023-03-01T00:32:54;2.95;;;0.70;;
74213;SDS011;62576;55.694;37.494;2023-03-01T00:35:23;2.30;;;0.80;;
74213;SDS011;62576;55.694;37.494;2023-03-01T00:37:55;3.30;;;1.00;;
74213;SDS011;62576;55.694;37.494;2023-03-01T00:40:27;3.30;;;0.93;;
74213;SDS011;62576;55.694;37.494;2023-03-01T00:42:58;2.75;;;1.15;;
74213;SDS011;62576;55.694;37.494;2023-03-01T00:45:28;4.25;;;0.88;;
74213;SDS011;62576;55.694;37.494;2023-03-01T00:47:59;5.05;;;1.00;;
74213;SDS011;62576;55.694;37.494;2023-03-01T00:50:26;1.77;;;0.43;;
74213;SDS011;62576;55.694;37.494;2023-03-01T00:52:57;2.15;;;0.80;;
74213;SDS011;62576;55.694;37.494;2023-03-01T00:55:27;1.42;;;0.70;;
74213;SDS011;62576;55.694;37.494;2023-03-01T00:57:58;4.13;;;0.85;;
74213;SDS011;62576;55.694;37.494;2023-03-01T01:00:29;4.53;;;0.75;;
74213;SDS011;62576;55.694;37.494;2023-03-01T01:02:59;2.85;;;0.63;;
74213;SDS011;62576;55.694;37.494;2023-03-01T01:05:29;1.40;;;0.70;;
74213;SDS011;62576;55.694;37.494;2023-03-01T01:08:00;2.22;;;0.80;;
74213;SDS011;62576;55.694;37.494;2023-03-01T01:10:30;2.05;;;0.63;;
74213;SDS011;62576;55.694;37.494;2023-03-01T01:13:02;1.73;;;0.47;;
74213;SDS011;62576;55.694;37.494;2023-03-01T01:15:33;2.38;;;0.68;;
74213;SDS011;62576;55.694;37.494;2023-03-01T01:18:03;2.45;;;1.05;;
74213;SDS011;62576;55.694;37.494;2023-03-01T01:20:34;2.30;;;0.60;;
74213;SDS011;62576;55.694;37.494;2023-03-01T01:23:06;2.05;;;0.60;;
74213;SDS011;62576;55.694;37.494;2023-03-01T01:25:36;1.85;;;0.70;;
74213;SDS011;62576;55.694;37.494;2023-03-01T01:28:06;1.55;;;0.60;;
74213;SDS011;62576;55.694;37.494;2023-03-01T01:30:36;1.80;;;0.60;;
74213;SDS011;62576;55.694;37.494;2023-03-01T01:33:06;3.80;;;0.77;;
74213;SDS011;62576;55.694;37.494;2023-03-01T01:35:36;3.80;;;0.80;;
74213;SDS011;62576;55.694;37.494;2023-03-01T01:38:07;1.83;;;0.57;;
74213;SDS011;62576;55.694;37.494;2023-03-01T01:40:42;2.58;;;0.80;;
74213;SDS011;62576;55.694;37.494;2023-03-01T01:43:15;3.33;;;0.70;;
74213;SDS011;62576;55.694;37.494;2023-03-01T01:45:49;2.47;;;0.55;;
74213;SDS011;62576;55.694;37.494;2023-03-01T01:48:20;2.13;;;0.60;;
74213;SDS011;62576;55.694;37.494;2023-03-01T01:50:52;3.88;;;0.68;;
74213;SDS011;62576;55.694;37.494;2023-03-01T01:53:27;2.22;;;0.68;;
74213;SDS011;62576;55.694;37.494;2023-03-01T01:55:58;3.58;;;0.85;;
74213;SDS011;62576;55.694;37.494;2023-03-01T01:58:30;1.75;;;0.50;;
74213;SDS011;62576;55.694;37.494;2023-03-01T02:01:00;3.05;;;0.90;;
74213;SDS011;62576;55.694;37.494;2023-03-01T02:03:31;3.35;;;0.80;;
74213;SDS011;62576;55.694;37.494;2023-03-01T02:06:06;1.20;;;0.70;;
74213;SDS011;62576;55.694;37.494;2023-03-01T02:08:42;2.78;;;0.80;;
74213;SDS011;62576;55.694;37.494;2023-03-01T02:11:15;5.45;;;1.00;;
74213;SDS011;62576;55.694;37.494;2023-03-01T02:13:45;2.83;;;0.80;;
74213;SDS011;62576;55.694;37.494;2023-03-01T02:16:17;2.83;;;0.55;;
74213;SDS011;62576;55.694;37.494;2023-03-01T02:18:48;2.80;;;0.85;;
74213;SDS011;62576;55.694;37.494;2023-03-01T02:21:23;1.80;;;0.47;;
74213;SDS011;62576;55.694;37.494;2023-03-01T02:24:10;3.55;;;0.88;;
74213;SDS011;62576;55.694;37.494;2023-03-01T02:26:53;0.95;;;0.40;;
74213;SDS011;62576;55.694;37.494;2023-03-01T02:29:27;1.40;;;0.60;;
74213;SDS011;62576;55.694;37.494;2023-03-01T02:31:58;1.25;;;0.50;;
74213;SDS011;62576;55.694;37.494;2023-03-01T02:34:29;2.47;;;0.75;;
74213;SDS011;62576;55.694;37.494;2023-03-01T02:37:03;1.90;;;0.70;;
74213;SDS011;62576;55.694;37.494;2023-03-01T02:39:37;1.40;;;0.70;;
74213;SDS011;62576;55.694;37.494;2023-03-01T02:42:11;7.10;;;0.98;;
74213;SDS011;62576;55.694;37.494;2023-03-01T02:44:45;4.68;;;1.00;;
74213;SDS011;62576;55.694;37.494;2023-03-01T02:47:15;3.42;;;0.80;;
74213;SDS011;62576;55.694;37.494;2023-03-01T02:49:45;0.40;;;0.40;;
74213;SDS011;62576;55.694;37.494;2023-03-01T02:52:34;1.40;;;0.55;;
74213;SDS011;62576;55.694;37.494;2023-03-01T02:55:15;7.38;;;0.88;;
74213;SDS011;62576;55.694;37.494;2023-03-01T02:57:46;2.28;;;0.75;;
74213;SDS011;62576;55.694;37.494;2023-03-01T03:00:21;2.13;;;0.70;;
74213;SDS011;62576;55.694;37.494;2023-03-01T03:02:54;4.70;;;0.85;;
74213;SDS011;62576;55.694;37.494;2023-03-01T03:05:26;2.17;;;0.82;;
74213;SDS011;62576;55.694;37.494;2023-03-01T03:07:57;2.65;;;0.80;;
74213;SDS011;62576;55.694;37.494;2023-03-01T03:10:30;1.17;;;0.57;;
74213;SDS011;62576;55.694;37.494;2023-03-01T03:13:03;1.85;;;0.70;;
74213;SDS011;62576;55.694;37.494;2023-03-01T03:15:36;1.33;;;0.60;;
74213;SDS011;62576;55.694;37.494;2023-03-01T03:18:07;1.83;;;0.80;;
74213;SDS011;62576;55.694;37.494;2023-03-01T03:20:39;2.70;;;0.60;;
74213;SDS011;62576;55.694;37.494;2023-03-01T03:23:11;3.10;;;0.82;;
74213;SDS011;62576;55.694;37.494;2023-03-01T03:25:41;5.40;;;0.88;;
74213;SDS011;62576;55.694;37.494;2023-03-01T03:28:11;4.13;;;0.93;;
74213;SDS011;62576;55.694;37.494;2023-03-01T03:30:43;1.58;;;0.57;;
74213;SDS011;62576;55.694;37.494;2023-03-01T03:33:13;2.53;;;0.70;;
74213;SDS011;62576;55.694;37.494;2023-03-01T03:35:43;3.42;;;0.90;;
74213;SDS011;62576;55.694;37.494;2023-03-01T03:38:15;2.90;;;0.82;;
74213;SDS011;62576;55.694;37.494;2023-03-01T03:40:52;3.08;;;0.85;;
74213;SDS011;62576;55.694;37.494;2023-03-01T03:43:31;3.47;;;0.50;;
74213;SDS011;62576;55.694;37.494;2023-03-01T03:46:04;1.38;;;0.80;;
74213;SDS011;62576;55.694;37.494;2023-03-01T03:48:35;2.85;;;0.85;;
74213;SDS011;62576;55.694;37.494;2023-03-01T03:51:04;2.35;;;0.70;;
74213;SDS011;62576;55.694;37.494;2023-03-01T03:53:34;1.98;;;0.50;;
74213;SDS011;62576;55.694;37.494;2023-03-01T03:56:04;3.05;;;0.90;;
74213;SDS011;62576;55.694;37.494;2023-03-01T03:58:36;2.85;;;0.77;;
74213;SDS011;62576;55.694;37.494;2023-03-01T04:01:08;5.93;;;1.15;;
74213;SDS011;62576;55.694;37.494;2023-03-01T04:03:38;3.70;;;0.90;;
74213;SDS011;62576;55.694;37.494;2023-03-01T04:06:10;5.43;;;1.10;;
74213;SDS011;62576;55.694;37.494;2023-03-01T04:08:39;2.72;;;0.90;;
74213;SDS011;62576;55.694;37.494;2023-03-01T04:11:10;4.47;;;1.35;;
74213;SDS011;62576;55.694;37.494;2023-03-01T04:13:57;2.25;;;0.82;;
74213;SDS011;62576;55.694;37.494;2023-03-01T04:16:29;3.17;;;0.80;;
74213;SDS011;62576;55.694;37.494;2023-03-01T04:18:59;6.25;;;1.05;;
74213;SDS011;62576;55.694;37.494;2023-03-01T04:21:29;2.35;;;0.80;;
74213;SDS011;62576;55.694;37.494;2023-03-01T04:23:59;3.28;;;0.60;;
74213;SDS011;62576;55.694;37.494;2023-03-01T04:26:31;3.95;;;0.90;;
74213;SDS011;62576;55.694;37.494;2023-03-01T04:29:01;2.30;;;0.68;;
74213;SDS011;62576;55.694;37.494;2023-03-01T04:31:36;2.72;;;1.00;;
74213;SDS011;62576;55.694;37.494;2023-03-01T04:34:06;3.50;;;0.98;;
74213;SDS011;62576;55.694;37.494;2023-03-01T04:36:37;3.28;;;0.90;;
74213;SDS011;62576;55.694;37.494;2023-03-01T04:39:07;2.28;;;0.70;;
74213;SDS011;62576;55.694;37.494;2023-03-01T04:41:40;1.52;;;0.70;;
74213;SDS011;62576;55.694;37.494;2023-03-01T04:44:12;4.43;;;1.00;;
74213;SDS011;62576;55.694;37.494;2023-03-01T04:46:44;1.88;;;0.60;;
74213;SDS011;62576;55.694;37.494;2023-03-01T04:49:11;2.10;;;0.90;;
74213;SDS011;62576;55.694;37.494;2023-03-01T04:51:41;4.38;;;1.20;;
74213;SDS011;62576;55.694;37.494;2023-03-01T04:54:11;3.67;;;1.05;;
74213;SDS011;62576;55.694;37.494;2023-03-01T04:56:42;3.47;;;1.20;;
74213;SDS011;62576;55.694;37.494;2023-03-01T04:59:12;2.55;;;0.90;;
74213;SDS011;62576;55.694;37.494;2023-03-01T05:01:44;3.10;;;0.90;;
74213;SDS011;62576;55.694;37.494;2023-03-01T05:04:14;2.08;;;0.82;;
74213;SDS011;62576;55.694;37.494;2023-03-01T05:06:45;3.17;;;1.27;;
74213;SDS011;62576;55.694;37.494;2023-03-01T05:09:14;6.28;;;1.30;;
74213;SDS011;62576;55.694;37.494;2023-03-01T05:11:45;1.30;;;0.80;;
74213;SDS011;62576;55.694;37.494;2023-03-01T05:14:15;6.00;;;1.50;;
74213;SDS011;62576;55.694;37.494;2023-03-01T05:16:48;6.93;;;1.85;;
74213;SDS011;62576;55.694;37.494;2023-03-01T05:19:18;4.63;;;1.80;;
74213;SDS011;62576;55.694;37.494;2023-03-01T05:21:50;5.00;;;1.85;;
74213;SDS011;62576;55.694;37.494;2023-03-01T05:24:34;10.57;;;2.15;;
74213;SDS011;62576;55.694;37.494;2023-03-01T05:27:05;6.10;;;2.65;;
74213;SDS011;62576;55.694;37.494;2023-03-01T05:29:35;10.85;;;3.28;;
74213;SDS011;62576;55.694;37.494;2023-03-01T05:32:09;8.80;;;2.90;;
74213;SDS011;62576;55.694;37.494;2023-03-01T05:34:43;8.25;;;2.22;;
74213;SDS011;62576;55.694;37.494;2023-03-01T05:37:14;7.53;;;2.78;;
74213;SDS011;62576;55.694;37.494;2023-03-01T05:39:44;7.95;;;2.70;;
74213;SDS011;62576;55.694;37.494;2023-03-01T05:42:14;12.07;;;4.07;;
74213;SDS011;62576;55.694;37.494;2023-03-01T05:44:44;6.80;;;2.58;;
74213;SDS011;62576;55.694;37.494;2023-03-01T05:47:16;7.38;;;2.55;;
74213;SDS011;62576;55.694;37.494;2023-03-01T05:49:46;6.47;;;2.72;;
74213;SDS011;62576;55.694;37.494;2023-03-01T05:52:24;11.93;;;3.03;;
74213;SDS011;62576;55.694;37.494;2023-03-01T05:54:54;10.43;;;3.30;;
74213;SDS011;62576;55.694;37.494;2023-03-01T05:57:24;7.78;;;2.92;;
74213;SDS011;62576;55.694;37.494;2023-03-01T05:59:55;10.48;;;3.25;;
74213;SDS011;62576;55.694;37.494;2023-03-01T06:02:26;6.63;;;2.35;;
74213;SDS011;62576;55.694;37.494;2023-03-01T06:04:57;11.60;;;2.13;;
74213;SDS011;62576;55.694;37.494;2023-03-01T06:07:27;6.53;;;2.40;;
74213;SDS011;62576;55.694;37.494;2023-03-01T06:09:57;9.02;;;3.20;;
74213;SDS011;62576;55.694;37.494;2023-03-01T06:12:29;6.40;;;2.40;;
74213;SDS011;62576;55.694;37.494;2023-03-01T06:15:01;8.15;;;1.90;;
74213;SDS011;62576;55.694;37.494;2023-03-01T06:17:34;5.70;;;1.92;;
74213;SDS011;62576;55.694;37.494;2023-03-01T06:20:06;2.80;;;1.23;;
74213;SDS011;62576;55.694;37.494;2023-03-01T06:22:38;6.40;;;2.23;;
74213;SDS011;62576;55.694;37.494;2023-03-01T06:25:09;7.93;;;1.90;;
74213;SDS011;62576;55.694;37.494;2023-03-01T06:27:41;3.97;;;1.65;;
74213;SDS011;62576;55.694;37.494;2023-03-01T06:30:13;7.20;;;1.52;;
74213;SDS011;62576;55.694;37.494;2023-03-01T06:32:48;4.35;;;1.52;;
74213;SDS011;62576;55.694;37.494;2023-03-01T06:35:19;4.75;;;1.77;;
74213;SDS011;62576;55.694;37.494;2023-03-01T06:37:49;3.92;;;1.52;;
74213;SDS011;62576;55.694;37.494;2023-03-01T06:40:19;6.68;;;1.40;;
74213;SDS011;62576;55.694;37.494;2023-03-01T06:42:50;6.93;;;1.30;;
74213;SDS011;62576;55.694;37.494;2023-03-01T06:45:20;3.53;;;1.20;;
74213;SDS011;62576;55.694;37.494;2023-03-01T06:47:52;4.07;;;1.20;;
74213;SDS011;62576;55.694;37.494;2023-03-01T06:50:27;4.80;;;1.42;;
74213;SDS011;62576;55.694;37.494;2023-03-01T06:52:58;4.18;;;1.08;;
74213;SDS011;62576;55.694;37.494;2023-03-01T06:55:28;4.97;;;1.50;;
74213;SDS011;62576;55.694;37.494;2023-03-01T06:58:01;4.40;;;1.15;;
74213;SDS011;62576;55.694;37.494;2023-03-01T07:00:32;5.95;;;1.08;;
74213;SDS011;62576;55.694;37.494;2023-03-01T07:03:04;4.63;;;1.23;;
74213;SDS011;62576;55.694;37.494;2023-03-01T07:05:34;5.43;;;1.40;;
74213;SDS011;62576;55.694;37.494;2023-03-01T07:08:03;5.70;;;1.80;;
74213;SDS011;62576;55.694;37.494;2023-03-01T07:10:33;6.47;;;1.40;;
74213;SDS011;62576;55.694;37.494;2023-03-01T07:13:03;2.75;;;1.02;;
74213;SDS011;62576;55.694;37.494;2023-03-01T07:15:34;5.35;;;1.15;;
74213;SDS011;62576;55.694;37.494;2023-03-01T07:18:06;4.18;;;0.80;;
74213;SDS011;62576;55.694;37.494;2023-03-01T07:20:37;3.83;;;1.23;;
74213;SDS011;62576;55.694;37.494;2023-03-01T07:23:07;3.15;;;0.70;;
74213;SDS011;62576;55.694;37.494;2023-03-01T07:25:37;4.03;;;0.93;;
74213;SDS011;62576;55.694;37.494;2023-03-01T07:28:07;6.60;;;1.30;;
74213;SDS011;62576;55.694;37.494;2023-03-01T07:30:38;2.42;;;0.93;;
74213;SDS011;62576;55.694;37.494;2023-03-01T07:33:10;5.18;;;1.38;;
74213;SDS011;62576;55.694;37.494;2023-03-01T07:35:40;3.15;;;1.00;;
74213;SDS011;62576;55.694;37.494;2023-03-01T07:38:13;3.67;;;1.50;;
74213;SDS011;62576;55.694;37.494;2023-03-01T07:40:44;2.70;;;0.80;;
74213;SDS011;62576;55.694;37.494;2023-03-01T07:43:13;2.92;;;1.02;;
74213;SDS011;62576;55.694;37.494;2023-03-01T07:45:44;5.07;;;1.25;;
74213;SDS011;62576;55.694;37.494;2023-03-01T07:51:14;5.00;;;1.30;;
74213;SDS011;62576;55.694;37.494;2023-03-01T07:53:45;4.35;;;1.13;;
74213;SDS011;62576;55.694;37.494;2023-03-01T07:56:16;3.83;;;0.90;;
74213;SDS011;62576;55.694;37.494;2023-03-01T07:58:47;4.88;;;1.73;;
74213;SDS011;62576;55.694;37.494;2023-03-01T08:01:18;4.47;;;1.10;;
74213;SDS011;62576;55.694;37.494;2023-03-01T08:03:50;3.55;;;1.00;;
74213;SDS011;62576;55.694;37.494;2023-03-01T08:06:20;2.80;;;0.82;;
74213;SDS011;62576;55.694;37.494;2023-03-01T08:08:51;4.75;;;1.27;;
74213;SDS011;62576;55.694;37.494;2023-03-01T08:11:23;4.53;;;1.25;;
74213;SDS011;62576;55.694;37.494;2023-03-01T08:13:53;3.35;;;1.30;;
74213;SDS011;62576;55.694;37.494;2023-03-01T08:16:23;5.03;;;1.50;;
74213;SDS011;62576;55.694;37.494;2023-03-01T08:18:55;3.67;;;0.98;;
74213;SDS011;62576;55.694;37.494;2023-03-01T08:21:28;6.82;;;1.27;;
74213;SDS011;62576;55.694;37.494;2023-03-01T08:23:58;5.22;;;1.23;;
74213;SDS011;62576;55.694;37.494;2023-03-01T08:26:29;2.88;;;1.10;;
74213;SDS011;62576;55.694;37.494;2023-03-01T08:28:59;2.65;;;1.10;;
74213;SDS011;62576;55.694;37.494;2023-03-01T08:31:30;6.07;;;1.13;;
74213;SDS011;62576;55.694;37.494;2023-03-01T08:34:05;3.53;;;1.20;;
74213;SDS011;62576;55.694;37.494;2023-03-01T08:36:38;7.55;;;1.58;;
74213;SDS011;62576;55.694;37.494;2023-03-01T08:39:11;3.40;;;1.10;;
74213;SDS011;62576;55.694;37.494;2023-03-01T08:41:43;3.63;;;1.00;;
74213;SDS011;62576;55.694;37.494;2023-03-01T08:44:14;5.78;;;1.02;;
74213;SDS011;62576;55.694;37.494;2023-03-01T08:46:45;2.20;;;1.00;;
74213;SDS011;62576;55.694;37.494;2023-03-01T08:49:19;2.78;;;1.20;;
74213;SDS011;62576;55.694;37.494;2023-03-01T08:51:49;3.70;;;1.10;;
74213;SDS011;62576;55.694;37.494;2023-03-01T08:54:20;5.85;;;1.80;;
74213;SDS011;62576;55.694;37.494;2023-03-01T08:56:51;5.70;;;1.65;;
74213;SDS011;62576;55.694;37.494;2023-03-01T08:59:21;4.78;;;1.52;;
74213;SDS011;62576;55.694;37.494;2023-03-01T09:01:51;6.78;;;1.20;;
74213;SDS011;62576;55.694;37.494;2023-03-01T09:04:23;10.98;;;1.50;;
74213;SDS011;62576;55.694;37.494;2023-03-01T09:06:53;3.13;;;1.30;;
74213;SDS011;62576;55.694;37.494;2023-03-01T09:09:23;2.67;;;1.02;;
74213;SDS011;62576;55.694;37.494;2023-03-01T09:11:53;3.17;;;0.80;;
74213;SDS011;62576;55.694;37.494;2023-03-01T09:14:23;2.53;;;0.90;;
74213;SDS011;62576;55.694;37.494;2023-03-01T09:16:53;3.47;;;1.02;;
74213;SDS011;62576;55.694;37.494;2023-03-01T09:19:25;4.43;;;1.20;;
74213;SDS011;62576;55.694;37.494;2023-03-01T09:21:55;1.75;;;0.80;;
74213;SDS011;62576;55.694;37.494;2023-03-01T09:24:34;2.97;;;0.95;;
74213;SDS011;62576;55.694;37.494;2023-03-01T09:27:04;2.95;;;1.15;;
74213;SDS011;62576;55.694;37.494;2023-03-01T09:29:37;4.32;;;0.98;;
74213;SDS011;62576;55.694;37.494;2023-03-01T09:32:08;3.85;;;1.10;;
74213;SDS011;62576;55.694;37.494;2023-03-01T09:34:40;3.13;;;1.00;;
74213;SDS011;62576;55.694;37.494;2023-03-01T09:37:24;4.10;;;1.17;;
74213;SDS011;62576;55.694;37.494;2023-03-01T09:39:54;5.35;;;1.05;;
74213;SDS011;62576;55.694;37.494;2023-03-01T09:42:25;4.45;;;1.00;;
74213;SDS011;62576;55.694;37.494;2023-03-01T09:44:58;3.35;;;1.10;;
74213;SDS011;62576;55.694;37.494;2023-03-01T09:47:31;5.20;;;1.88;;
74213;SDS011;62576;55.694;37.494;2023-03-01T09:50:06;3.38;;;1.00;;
74213;SDS011;62576;55.694;37.494;2023-03-01T09:52:42;4.60;;;1.20;;
74213;SDS011;62576;55.694;37.494;2023-03-01T09:55:17;1.85;;;0.90;;
74213;SDS011;62576;55.694;37.494;2023-03-01T09:57:58;3.42;;;1.50;;
74213;SDS011;62576;55.694;37.494;2023-03-01T10:00:37;2.65;;;1.00;;
74213;SDS011;62576;55.694;37.494;2023-03-01T10:03:12;2.95;;;1.10;;
74213;SDS011;62576;55.694;37.494;2023-03-01T10:05:50;5.28;;;1.30;;
74213;SDS011;62576;55.694;37.494;2023-03-01T10:11:19;4.60;;;1.20;;
74213;SDS011;62576;55.694;37.494;2023-03-01T10:13:55;2.85;;;1.10;;
74213;SDS011;62576;55.694;37.494;2023-03-01T10:16:33;5.05;;;1.13;;
74213;SDS011;62576;55.694;37.494;2023-03-01T10:19:10;3.85;;;1.20;;
74213;SDS011;62576;55.694;37.494;2023-03-01T10:21:47;3.20;;;1.17;;
74213;SDS011;62576;55.694;37.494;2023-03-01T10:24:20;6.15;;;1.38;;
74213;SDS011;62576;55.694;37.494;2023-03-01T10:26:54;5.35;;;1.02;;
74213;SDS011;62576;55.694;37.494;2023-03-01T10:29:26;3.83;;;1.00;;
74213;SDS011;62576;55.694;37.494;2023-03-01T10:32:04;5.45;;;1.10;;
74213;SDS011;62576;55.694;37.494;2023-03-01T10:34:35;2.67;;;0.80;;
74213;SDS011;62576;55.694;37.494;2023-03-01T10:37:12;5.13;;;1.70;;
74213;SDS011;62576;55.694;37.494;2023-03-01T10:39:56;3.95;;;1.05;;
74213;SDS011;62576;55.694;37.494;2023-03-01T10:42:29;4.65;;;1.20;;
74213;SDS011;62576;55.694;37.494;2023-03-01T10:45:14;4.72;;;1.40;;
74213;SDS011;62576;55.694;37.494;2023-03-01T10:47:46;4.43;;;1.20;;
74213;SDS011;62576;55.694;37.494;2023-03-01T10:50:29;1.60;;;0.80;;
74213;SDS011;62576;55.694;37.494;2023-03-01T10:53:02;3.42;;;0.73;;
74213;SDS011;62576;55.694;37.494;2023-03-01T10:58:09;3.85;;;1.20;;
74213;SDS011;62576;55.694;37.494;2023-03-01T11:00:48;2.20;;;0.73;;
74213;SDS011;62576;55.694;37.494;2023-03-01T11:03:21;3.57;;;0.90;;
74213;SDS011;62576;55.694;37.494;2023-03-01T11:05:56;4.88;;;0.95;;
74213;SDS011;62576;55.694;37.494;2023-03-01T11:08:46;5.03;;;1.00;;
74213;SDS011;62576;55.694;37.494;2023-03-01T11:11:19;2.60;;;0.98;;
74213;SDS011;62576;55.694;37.494;2023-03-01T11:13:54;6.03;;;1.30;;
74213;SDS011;62576;55.694;37.494;2023-03-01T11:16:28;5.10;;;1.35;;
74213;SDS011;62576;55.694;37.494;2023-03-01T11:21:55;3.08;;;0.80;;
74213;SDS011;62576;55.694;37.494;2023-03-01T11:24:36;2.85;;;1.13;;
74213;SDS011;62576;55.694;37.494;2023-03-01T11:29:57;2.95;;;1.10;;
74213;SDS011;62576;55.694;37.494;2023-03-01T11:32:34;4.00;;;0.95;;
74213;SDS011;62576;55.694;37.494;2023-03-01T11:35:10;2.97;;;0.93;;
74213;SDS011;62576;55.694;37.494;2023-03-01T11:37:50;3.13;;;0.90;;
74213;SDS011;62576;55.694;37.494;2023-03-01T11:40:32;4.30;;;1.20;;
74213;SDS011;62576;55.694;37.494;2023-03-01T11:43:19;4.30;;;1.08;;
74213;SDS011;62576;55.694;37.494;2023-03-01T11:49:14;4.93;;;1.30;;
74213;SDS011;62576;55.694;37.494;2023-03-01T11:52:16;4.57;;;1.05;;
74213;SDS011;62576;55.694;37.494;2023-03-01T11:54:58;3.30;;;1.30;;
74213;SDS011;62576;55.694;37.494;2023-03-01T11:57:49;3.72;;;1.20;;
74213;SDS011;62576;55.694;37.494;2023-03-01T12:06:35;3.15;;;1.00;;
74213;SDS011;62576;55.694;37.494;2023-03-01T12:09:17;4.07;;;1.10;;
74213;SDS011;62576;55.694;37.494;2023-03-01T12:12:02;4.40;;;1.00;;
74213;SDS011;62576;55.694;37.494;2023-03-01T12:14:53;4.82;;;1.30;;
74213;SDS011;62576;55.694;37.494;2023-03-01T12:20:35;4.10;;;1.20;;
74213;SDS011;62576;55.694;37.494;2023-03-01T12:26:17;5.80;;;1.30;;
74213;SDS011;62576;55.694;37.494;2023-03-01T12:29:00;6.05;;;1.42;;
74213;SDS011;62576;55.694;37.494;2023-03-01T12:37:42;4.78;;;1.20;;
74213;SDS011;62576;55.694;37.494;2023-03-01T12:43:27;2.70;;;1.10;;
74213;SDS011;62576;55.694;37.494;2023-03-01T12:46:20;1.27;;;0.80;;
74213;SDS011;62576;55.694;37.494;2023-03-01T12:49:02;3.13;;;1.10;;
74213;SDS011;62576;55.694;37.494;2023-03-01T12:51:37;6.85;;;1.27;;
74213;SDS011;62576;55.694;37.494;2023-03-01T12:54:11;4.93;;;1.42;;
74213;SDS011;62576;55.694;37.494;2023-03-01T12:56:45;4.05;;;0.82;;
74213;SDS011;62576;55.694;37.494;2023-03-01T12:59:21;4.22;;;1.05;;
74213;SDS011;62576;55.694;37.494;2023-03-01T13:02:02;2.47;;;0.90;;
74213;SDS011;62576;55.694;37.494;2023-03-01T13:07:36;1.02;;;0.70;;
74213;SDS011;62576;55.694;37.494;2023-03-01T13:10:17;1.35;;;0.93;;
74213;SDS011;62576;55.694;37.494;2023-03-01T13:13:01;3.47;;;0.93;;
74213;SDS011;62576;55.694;37.494;2023-03-01T13:15:38;3.88;;;1.08;;
74213;SDS011;62576;55.694;37.494;2023-03-01T13:18:27;1.52;;;0.68;;
74213;SDS011;62576;55.694;37.494;2023-03-01T13:21:01;3.13;;;0.63;;
74213;SDS011;62576;55.694;37.494;2023-03-01T13:23:34;3.95;;;1.00;;
74213;SDS011;62576;55.694;37.494;2023-03-01T13:26:08;7.50;;;1.20;;
74213;SDS011;62576;55.694;37.494;2023-03-01T13:34:40;3.33;;;1.10;;
74213;SDS011;62576;55.694;37.494;2023-03-01T13:37:20;2.65;;;1.02;;
74213;SDS011;62576;55.694;37.494;2023-03-01T13:39:54;9.65;;;1.23;;
74213;SDS011;62576;55.694;37.494;2023-03-01T13:42:35;3.37;;;1.00;;
74213;SDS011;62576;55.694;37.494;2023-03-01T13:45:22;3.03;;;0.95;;
74213;SDS011;62576;55.694;37.494;2023-03-01T13:48:03;6.13;;;1.50;;
74213;SDS011;62576;55.694;37.494;2023-03-01T13:50:37;7.05;;;1.00;;
74213;SDS011;62576;55.694;37.494;2023-03-01T13:53:16;12.18;;;1.70;;
74213;SDS011;62576;55.694;37.494;2023-03-01T13:55:48;3.60;;;0.90;;
74213;SDS011;62576;55.694;37.494;2023-03-01T13:58:23;3.80;;;1.02;;
74213;SDS011;62576;55.694;37.494;2023-03-01T14:00:56;7.82;;;1.45;;
74213;SDS011;62576;55.694;37.494;2023-03-01T14:03:28;3.17;;;1.20;;
74213;SDS011;62576;55.694;37.494;2023-03-01T14:06:01;3.97;;;1.25;;
74213;SDS011;62576;55.694;37.494;2023-03-01T14:08:39;6.50;;;1.15;;
74213;SDS011;62576;55.694;37.494;2023-03-01T14:14:28;5.93;;;1.42;;
74213;SDS011;62576;55.694;37.494;2023-03-01T14:17:14;2.97;;;1.20;;
74213;SDS011;62576;55.694;37.494;2023-03-01T14:20:02;4.43;;;1.20;;
74213;SDS011;62576;55.694;37.494;2023-03-01T14:22:44;5.23;;;1.60;;
74213;SDS011;62576;55.694;37.494;2023-03-01T14:25:21;2.28;;;1.10;;
74213;SDS011;62576;55.694;37.494;2023-03-01T14:27:56;4.32;;;1.15;;
74213;SDS011;62576;55.694;37.494;2023-03-01T14:30:31;4.10;;;1.30;;
74213;SDS011;62576;55.694;37.494;2023-03-01T14:33:05;3.85;;;1.50;;
74213;SDS011;62576;55.694;37.494;2023-03-01T14:38:34;3.20;;;1.10;;
74213;SDS011;62576;55.694;37.494;2023-03-01T14:41:09;3.42;;;1.15;;
74213;SDS011;62576;55.694;37.494;2023-03-01T14:43:44;3.75;;;1.08;;
74213;SDS011;62576;55.694;37.494;2023-03-01T14:46:19;2.53;;;1.20;;
74213;SDS011;62576;55.694;37.494;2023-03-01T14:48:51;4.82;;;1.20;;
74213;SDS011;62576;55.694;37.494;2023-03-01T14:51:21;3.75;;;1.10;;
74213;SDS011;62576;55.694;37.494;2023-03-01T14:53:56;5.93;;;1.63;;
74213;SDS011;62576;55.694;37.494;2023-03-01T14:56:39;4.82;;;1.50;;
74213;SDS011;62576;55.694;37.494;2023-03-01T14:59:14;4.30;;;1.35;;
74213;SDS011;62576;55.694;37.494;2023-03-01T15:01:45;5.45;;;1.40;;
74213;SDS011;62576;55.694;37.494;2023-03-01T15:04:16;4.15;;;1.27;;
74213;SDS011;62576;55.694;37.494;2023-03-01T15:06:50;4.03;;;1.30;;
74213;SDS011;62576;55.694;37.494;2023-03-01T15:09:21;6.13;;;1.40;;
74213;SDS011;62576;55.694;37.494;2023-03-01T15:11:54;2.25;;;1.25;;
74213;SDS011;62576;55.694;37.494;2023-03-01T15:14:25;4.82;;;1.40;;
74213;SDS011;62576;55.694;37.494;2023-03-01T15:19:57;3.47;;;1.20;;
74213;SDS011;62576;55.694;37.494;2023-03-01T15:22:31;4.07;;;1.40;;
74213;SDS011;62576;55.694;37.494;2023-03-01T15:25:02;2.83;;;1.67;;
74213;SDS011;62576;55.694;37.494;2023-03-01T15:27:40;3.50;;;1.30;;
74213;SDS011;62576;55.694;37.494;2023-03-01T15:30:17;2.85;;;1.20;;
74213;SDS011;62576;55.694;37.494;2023-03-01T15:35:56;2.60;;;0.88;;
74213;SDS011;62576;55.694;37.494;2023-03-01T15:38:28;2.63;;;0.90;;
74213;SDS011;62576;55.694;37.494;2023-03-01T15:41:21;4.13;;;1.15;;
74213;SDS011;62576;55.694;37.494;2023-03-01T15:44:13;3.22;;;0.93;;
74213;SDS011;62576;55.694;37.494;2023-03-01T15:46:46;2.63;;;1.10;;
74213;SDS011;62576;55.694;37.494;2023-03-01T15:49:21;5.90;;;1.55;;
74213;SDS011;62576;55.694;37.494;2023-03-01T15:52:10;2.45;;;1.15;;
74213;SDS011;62576;55.694;37.494;2023-03-01T15:55:00;3.63;;;1.13;;
74213;SDS011;62576;55.694;37.494;2023-03-01T15:57:34;5.13;;;1.10;;
74213;SDS011;62576;55.694;37.494;2023-03-01T16:00:15;1.60;;;0.85;;
74213;SDS011;62576;55.694;37.494;2023-03-01T16:02:50;3.78;;;1.27;;
74213;SDS011;62576;55.694;37.494;2023-03-01T16:05:21;5.65;;;1.30;;
74213;SDS011;62576;55.694;37.494;2023-03-01T16:07:58;2.58;;;1.00;;
74213;SDS011;62576;55.694;37.494;2023-03-01T16:10:29;1.33;;;0.80;;